sensor_id;sensor_type;location;lat;lon;timestamp;pressure;altitude;pressure_sealevel;temperature;humidity
85066;BME280;75401;52.588;13.224;2024-01-07T00:00:04;101600.53;;;1.30;70.71
85066;BME280;75401;52.588;13.224;2024-01-07T00:02:30;101591.84;;;1.27;71.20
85066;BME280;75401;52.588;13.224;2024-01-07T00:04:55;101591.03;;;1.25;70.32
85066;BME280;75401;52.588;13.224;2024-01-07T00:07:20;101580.81;;;1.19;68.40
85066;BME280;75401;52.588;13.224;2024-01-07T00:09:47;101588.50;;;1.24;69.28
85066;BME280;75401;52.588;13.224;2024-01-07T00:12:12;101561.78;;;1.13;69.86
85066;BME280;75401;52.588;13.224;2024-01-07T00:14:38;101592.03;;;1.23;71.06
85066;BME280;75401;52.588;13.224;2024-01-07T00:17:03;101592.41;;;1.15;68.66
85066;BME280;75401;52.588;13.224;2024-01-07T00:19:28;101590.72;;;1.14;67.78
85066;BME280;75401;52.588;13.224;2024-01-07T00:21:54;101598.59;;;1.14;68.26
85066;BME280;75401;52.588;13.224;2024-01-07T00:24:19;101603.78;;;1.16;69.25
85066;BME280;75401;52.588;13.224;2024-01-07T00:26:45;101617.19;;;1.11;67.20
85066;BME280;75401;52.588;13.224;2024-01-07T00:29:11;101615.69;;;1.06;67.07
85066;BME280;75401;52.588;13.224;2024-01-07T00:31:36;101613.78;;;1.09;68.05
85066;BME280;75401;52.588;13.224;2024-01-07T00:34:01;101612.47;;;0.99;67.70
85066;BME280;75401;52.588;13.224;2024-01-07T00:36:26;101610.50;;;1.04;67.99
85066;BME280;75401;52.588;13.224;2024-01-07T00:38:52;101622.06;;;1.00;66.54
85066;BME280;75401;52.588;13.224;2024-01-07T00:41:17;101630.97;;;0.98;67.03
85066;BME280;75401;52.588;13.224;2024-01-07T00:43:44;101627.56;;;0.96;65.91
85066;BME280;75401;52.588;13.224;2024-01-07T00:46:09;101630.28;;;0.94;67.07
85066;BME280;75401;52.588;13.224;2024-01-07T00:48:34;101638.56;;;0.85;66.48
85066;BME280;75401;52.588;13.224;2024-01-07T00:51:00;101638.44;;;0.88;67.55
85066;BME280;75401;52.588;13.224;2024-01-07T00:53:25;101637.00;;;0.81;67.04
85066;BME280;75401;52.588;13.224;2024-01-07T00:55:50;101647.56;;;0.80;67.76
85066;BME280;75401;52.588;13.224;2024-01-07T00:58:16;101661.34;;;0.86;68.70
85066;BME280;75401;52.588;13.224;2024-01-07T01:00:43;101658.72;;;0.86;67.35
85066;BME280;75401;52.588;13.224;2024-01-07T01:03:08;101663.22;;;0.84;68.45
85066;BME280;75401;52.588;13.224;2024-01-07T01:05:33;101663.34;;;0.81;66.61
85066;BME280;75401;52.588;13.224;2024-01-07T01:07:59;101671.16;;;0.83;67.60
85066;BME280;75401;52.588;13.224;2024-01-07T01:10:24;101628.47;;;0.56;67.10
85066;BME280;75401;52.588;13.224;2024-01-07T01:12:50;101660.03;;;0.76;68.48
85066;BME280;75401;52.588;13.224;2024-01-07T01:15:15;101671.63;;;0.72;67.40
85066;BME280;75401;52.588;13.224;2024-01-07T01:17:42;101677.09;;;0.68;66.57
85066;BME280;75401;52.588;13.224;2024-01-07T01:20:08;101675.69;;;0.59;66.06
85066;BME280;75401;52.588;13.224;2024-01-07T01:22:34;101683.66;;;0.57;66.08
85066;BME280;75401;52.588;13.224;2024-01-07T01:24:59;101686.94;;;0.62;65.78
85066;BME280;75401;52.588;13.224;2024-01-07T01:27:25;101691.47;;;0.59;67.47
85066;BME280;75401;52.588;13.224;2024-01-07T01:29:50;101684.56;;;0.56;66.46
85066;BME280;75401;52.588;13.224;2024-01-07T01:32:15;101690.81;;;0.54;66.54
85066;BME280;75401;52.588;13.224;2024-01-07T01:34:42;101694.19;;;0.57;66.75
85066;BME280;75401;52.588;13.224;2024-01-07T01:37:08;101702.41;;;0.50;67.04
85066;BME280;75401;52.588;13.224;2024-01-07T01:39:33;101700.63;;;0.50;66.87
85066;BME280;75401;52.588;13.224;2024-01-07T01:41:58;101713.84;;;0.49;67.45
85066;BME280;75401;52.588;13.224;2024-01-07T01:44:24;101713.06;;;0.47;66.61
85066;BME280;75401;52.588;13.224;2024-01-07T01:46:50;101696.84;;;0.36;68.15
85066;BME280;75401;52.588;13.224;2024-01-07T01:49:15;101708.00;;;0.42;67.44
85066;BME280;75401;52.588;13.224;2024-01-07T01:51:42;101712.59;;;0.37;66.85
85066;BME280;75401;52.588;13.224;2024-01-07T01:54:08;101717.97;;;0.34;67.21
85066;BME280;75401;52.588;13.224;2024-01-07T01:56:33;101719.16;;;0.27;67.04
85066;BME280;75401;52.588;13.224;2024-01-07T01:58:59;101711.91;;;0.32;67.73
85066;BME280;75401;52.588;13.224;2024-01-07T02:01:24;101722.09;;;0.20;67.08
85066;BME280;75401;52.588;13.224;2024-01-07T02:03:50;101713.41;;;0.18;67.31
85066;BME280;75401;52.588;13.224;2024-01-07T02:06:15;101725.69;;;0.17;67.28
85066;BME280;75401;52.588;13.224;2024-01-07T02:08:42;101717.69;;;0.20;68.95
85066;BME280;75401;52.588;13.224;2024-01-07T02:11:15;101718.03;;;0.11;67.94
85066;BME280;75401;52.588;13.224;2024-01-07T02:13:40;101728.56;;;0.11;68.36
85066;BME280;75401;52.588;13.224;2024-01-07T02:16:05;101726.97;;;0.07;67.17
85066;BME280;75401;52.588;13.224;2024-01-07T02:18:31;101728.06;;;0.02;67.55
85066;BME280;75401;52.588;13.224;2024-01-07T02:20:56;101734.81;;;0.09;67.98
85066;BME280;75401;52.588;13.224;2024-01-07T02:23:21;101741.97;;;0.05;68.62
85066;BME280;75401;52.588;13.224;2024-01-07T02:25:48;101734.31;;;-0.01;68.36
85066;BME280;75401;52.588;13.224;2024-01-07T02:28:13;101733.88;;;-0.12;67.09
85066;BME280;75401;52.588;13.224;2024-01-07T02:30:39;101739.69;;;-0.04;67.80
85066;BME280;75401;52.588;13.224;2024-01-07T02:33:04;101737.16;;;-0.07;66.26
85066;BME280;75401;52.588;13.224;2024-01-07T02:35:29;101734.50;;;-0.06;68.05
85066;BME280;75401;52.588;13.224;2024-01-07T02:37:55;101743.03;;;-0.22;66.96
85066;BME280;75401;52.588;13.224;2024-01-07T02:40:20;101745.31;;;-0.13;68.90
85066;BME280;75401;52.588;13.224;2024-01-07T02:42:47;101746.44;;;-0.20;67.36
85066;BME280;75401;52.588;13.224;2024-01-07T02:45:12;101743.59;;;-0.14;67.79
85066;BME280;75401;52.588;13.224;2024-01-07T02:47:38;101746.34;;;-0.17;66.73
85066;BME280;75401;52.588;13.224;2024-01-07T02:50:03;101742.16;;;-0.23;66.45
85066;BME280;75401;52.588;13.224;2024-01-07T02:52:29;101748.97;;;-0.17;68.38
85066;BME280;75401;52.588;13.224;2024-01-07T02:54:54;101752.97;;;-0.30;66.99
85066;BME280;75401;52.588;13.224;2024-01-07T02:57:19;101757.50;;;-0.34;67.48
85066;BME280;75401;52.588;13.224;2024-01-07T02:59:46;101760.91;;;-0.32;68.57
85066;BME280;75401;52.588;13.224;2024-01-07T03:02:11;101761.81;;;-0.33;67.46
85066;BME280;75401;52.588;13.224;2024-01-07T03:04:36;101759.34;;;-0.36;68.09
85066;BME280;75401;52.588;13.224;2024-01-07T03:07:02;101765.31;;;-0.32;68.71
85066;BME280;75401;52.588;13.224;2024-01-07T03:09:27;101770.75;;;-0.37;66.59
85066;BME280;75401;52.588;13.224;2024-01-07T03:11:52;101766.97;;;-0.30;68.27
85066;BME280;75401;52.588;13.224;2024-01-07T03:14:18;101770.63;;;-0.34;68.23
85066;BME280;75401;52.588;13.224;2024-01-07T03:16:44;101766.25;;;-0.33;67.52
85066;BME280;75401;52.588;13.224;2024-01-07T03:19:10;101772.50;;;-0.37;67.84
85066;BME280;75401;52.588;13.224;2024-01-07T03:21:35;101777.84;;;-0.39;69.15
85066;BME280;75401;52.588;13.224;2024-01-07T03:24:00;101783.41;;;-0.48;68.00
85066;BME280;75401;52.588;13.224;2024-01-07T03:26:29;101784.28;;;-0.47;68.07
85066;BME280;75401;52.588;13.224;2024-01-07T03:28:54;101784.28;;;-0.47;68.41
85066;BME280;75401;52.588;13.224;2024-01-07T03:31:19;101783.47;;;-0.49;68.18
85066;BME280;75401;52.588;13.224;2024-01-07T03:33:46;101790.44;;;-0.48;68.09
85066;BME280;75401;52.588;13.224;2024-01-07T03:36:13;101788.66;;;-0.48;67.47
85066;BME280;75401;52.588;13.224;2024-01-07T03:38:40;101799.41;;;-0.54;69.14
85066;BME280;75401;52.588;13.224;2024-01-07T03:41:06;101794.19;;;-0.55;68.03
85066;BME280;75401;52.588;13.224;2024-01-07T03:43:31;101800.31;;;-0.55;67.90
85066;BME280;75401;52.588;13.224;2024-01-07T03:45:57;101804.72;;;-0.55;68.08
85066;BME280;75401;52.588;13.224;2024-01-07T03:48:22;101797.00;;;-0.60;68.56
85066;BME280;75401;52.588;13.224;2024-01-07T03:50:49;101812.75;;;-0.60;68.25
85066;BME280;75401;52.588;13.224;2024-01-07T03:53:15;101821.50;;;-0.59;69.06
85066;BME280;75401;52.588;13.224;2024-01-07T03:55:40;101824.34;;;-0.66;67.39
85066;BME280;75401;52.588;13.224;2024-01-07T03:58:05;101817.50;;;-0.70;68.05
85066;BME280;75401;52.588;13.224;2024-01-07T04:00:31;101831.31;;;-0.65;69.16
85066;BME280;75401;52.588;13.224;2024-01-07T04:02:56;101831.34;;;-0.66;69.04
85066;BME280;75401;52.588;13.224;2024-01-07T04:05:21;101826.97;;;-0.66;69.19
85066;BME280;75401;52.588;13.224;2024-01-07T04:07:48;101835.78;;;-0.67;69.31
85066;BME280;75401;52.588;13.224;2024-01-07T04:10:15;101840.91;;;-0.64;68.52
85066;BME280;75401;52.588;13.224;2024-01-07T04:12:41;101837.31;;;-0.61;69.35
85066;BME280;75401;52.588;13.224;2024-01-07T04:15:06;101842.81;;;-0.69;67.95
85066;BME280;75401;52.588;13.224;2024-01-07T04:17:32;101844.50;;;-0.66;68.86
85066;BME280;75401;52.588;13.224;2024-01-07T04:19:57;101848.06;;;-0.67;68.55
85066;BME280;75401;52.588;13.224;2024-01-07T04:22:22;101848.91;;;-0.67;68.46
85066;BME280;75401;52.588;13.224;2024-01-07T04:24:49;101846.16;;;-0.64;70.10
85066;BME280;75401;52.588;13.224;2024-01-07T04:27:14;101854.91;;;-0.63;69.02
85066;BME280;75401;52.588;13.224;2024-01-07T04:29:40;101858.31;;;-0.61;69.27
85066;BME280;75401;52.588;13.224;2024-01-07T04:32:05;101859.16;;;-0.59;69.70
85066;BME280;75401;52.588;13.224;2024-01-07T04:34:31;101858.22;;;-0.58;69.21
85066;BME280;75401;52.588;13.224;2024-01-07T04:36:57;101863.44;;;-0.56;68.22
85066;BME280;75401;52.588;13.224;2024-01-07T04:39:22;101864.19;;;-0.53;69.28
85066;BME280;75401;52.588;13.224;2024-01-07T04:41:49;101859.84;;;-0.54;67.93
85066;BME280;75401;52.588;13.224;2024-01-07T04:44:14;101858.91;;;-0.53;68.70
85066;BME280;75401;52.588;13.224;2024-01-07T04:46:40;101865.91;;;-0.52;69.64
85066;BME280;75401;52.588;13.224;2024-01-07T04:49:05;101869.22;;;-0.47;68.47
85066;BME280;75401;52.588;13.224;2024-01-07T04:51:31;101874.50;;;-0.48;68.08
85066;BME280;75401;52.588;13.224;2024-01-07T04:53:56;101877.13;;;-0.47;69.00
85066;BME280;75401;52.588;13.224;2024-01-07T04:56:21;101867.47;;;-0.46;69.12
85066;BME280;75401;52.588;13.224;2024-01-07T04:58:48;101866.44;;;-0.42;68.58
85066;BME280;75401;52.588;13.224;2024-01-07T05:01:13;101871.50;;;-0.38;69.70
85066;BME280;75401;52.588;13.224;2024-01-07T05:03:38;101877.72;;;-0.39;69.52
85066;BME280;75401;52.588;13.224;2024-01-07T05:06:04;101880.25;;;-0.37;68.95
85066;BME280;75401;52.588;13.224;2024-01-07T05:08:29;101878.78;;;-0.44;67.66
85066;BME280;75401;52.588;13.224;2024-01-07T05:10:55;101872.44;;;-0.39;67.81
85066;BME280;75401;52.588;13.224;2024-01-07T05:13:20;101879.25;;;-0.33;68.46
85066;BME280;75401;52.588;13.224;2024-01-07T05:15:47;101875.66;;;-0.31;68.65
85066;BME280;75401;52.588;13.224;2024-01-07T05:18:12;101879.09;;;-0.29;68.46
85066;BME280;75401;52.588;13.224;2024-01-07T05:20:38;101878.16;;;-0.28;68.56
85066;BME280;75401;52.588;13.224;2024-01-07T05:23:03;101882.34;;;-0.22;69.42
85066;BME280;75401;52.588;13.224;2024-01-07T05:25:29;101870.00;;;-0.20;68.59
85066;BME280;75401;52.588;13.224;2024-01-07T05:27:54;101880.75;;;-0.26;67.10
85066;BME280;75401;52.588;13.224;2024-01-07T05:30:20;101879.78;;;-0.24;68.51
85066;BME280;75401;52.588;13.224;2024-01-07T05:32:46;101885.63;;;-0.16;69.03
85066;BME280;75401;52.588;13.224;2024-01-07T05:35:12;101885.56;;;-0.14;68.33
85066;BME280;75401;52.588;13.224;2024-01-07T05:37:37;101885.50;;;-0.13;67.55
85066;BME280;75401;52.588;13.224;2024-01-07T05:40:03;101898.53;;;-0.10;67.72
85066;BME280;75401;52.588;13.224;2024-01-07T05:42:29;101902.03;;;-0.09;67.83
85066;BME280;75401;52.588;13.224;2024-01-07T05:44:54;101911.66;;;-0.08;68.00
85066;BME280;75401;52.588;13.224;2024-01-07T05:47:19;101918.66;;;-0.09;67.88
85066;BME280;75401;52.588;13.224;2024-01-07T05:49:46;101910.13;;;-0.15;66.42
85066;BME280;75401;52.588;13.224;2024-01-07T05:52:11;101916.91;;;-0.08;67.88
85066;BME280;75401;52.588;13.224;2024-01-07T05:54:36;101913.16;;;-0.03;68.56
85066;BME280;75401;52.588;13.224;2024-01-07T05:57:02;101928.84;;;0.00;68.58
85066;BME280;75401;52.588;13.224;2024-01-07T05:59:27;101921.78;;;0.03;67.75
85066;BME280;75401;52.588;13.224;2024-01-07T06:01:58;101920.94;;;0.00;67.02
85066;BME280;75401;52.588;13.224;2024-01-07T06:04:23;101927.06;;;0.01;68.15
85066;BME280;75401;52.588;13.224;2024-01-07T06:06:50;101929.50;;;0.07;68.07
85066;BME280;75401;52.588;13.224;2024-01-07T06:09:15;101927.72;;;0.08;67.13
85066;BME280;75401;52.588;13.224;2024-01-07T06:11:40;101924.94;;;0.12;68.39
85066;BME280;75401;52.588;13.224;2024-01-07T06:14:05;101928.56;;;0.08;67.17
85066;BME280;75401;52.588;13.224;2024-01-07T06:16:31;101929.44;;;0.09;67.30
85066;BME280;75401;52.588;13.224;2024-01-07T06:18:56;101930.22;;;0.11;66.96
85066;BME280;75401;52.588;13.224;2024-01-07T06:21:21;101936.25;;;0.14;68.34
85066;BME280;75401;52.588;13.224;2024-01-07T06:23:48;101938.00;;;0.14;67.85
85066;BME280;75401;52.588;13.224;2024-01-07T06:26:14;101937.09;;;0.15;68.87
85066;BME280;75401;52.588;13.224;2024-01-07T06:28:40;101940.47;;;0.18;68.94
85066;BME280;75401;52.588;13.224;2024-01-07T06:31:05;101941.31;;;0.19;69.29
85066;BME280;75401;52.588;13.224;2024-01-07T06:33:30;101941.50;;;0.14;67.38
85066;BME280;75401;52.588;13.224;2024-01-07T06:35:56;101942.09;;;0.22;68.90
85066;BME280;75401;52.588;13.224;2024-01-07T06:38:21;101893.28;;;-0.10;67.18
85066;BME280;75401;52.588;13.224;2024-01-07T06:40:48;101944.03;;;0.17;67.96
85066;BME280;75401;52.588;13.224;2024-01-07T06:43:13;101944.81;;;0.19;69.06
85066;BME280;75401;52.588;13.224;2024-01-07T06:45:38;101932.81;;;0.12;68.32
85066;BME280;75401;52.588;13.224;2024-01-07T06:48:04;101952.53;;;0.24;69.70
85066;BME280;75401;52.588;13.224;2024-01-07T06:50:29;101957.88;;;0.22;67.81
85066;BME280;75401;52.588;13.224;2024-01-07T06:52:55;101949.91;;;0.24;68.82
85066;BME280;75401;52.588;13.224;2024-01-07T06:55:21;101956.91;;;0.25;70.53
85066;BME280;75401;52.588;13.224;2024-01-07T06:57:48;101955.13;;;0.25;70.12
85066;BME280;75401;52.588;13.224;2024-01-07T07:00:14;101956.09;;;0.23;69.34
85066;BME280;75401;52.588;13.224;2024-01-07T07:02:39;101962.16;;;0.25;70.50
85066;BME280;75401;52.588;13.224;2024-01-07T07:05:05;101965.66;;;0.25;69.75
85066;BME280;75401;52.588;13.224;2024-01-07T07:07:30;101976.19;;;0.25;70.28
85066;BME280;75401;52.588;13.224;2024-01-07T07:09:55;101970.16;;;0.22;70.03
85066;BME280;75401;52.588;13.224;2024-01-07T07:12:21;101972.59;;;0.28;69.50
85066;BME280;75401;52.588;13.224;2024-01-07T07:14:47;101978.75;;;0.27;69.37
85066;BME280;75401;52.588;13.224;2024-01-07T07:17:12;101955.34;;;0.19;69.31
85066;BME280;75401;52.588;13.224;2024-01-07T07:19:38;101990.03;;;0.30;68.15
85066;BME280;75401;52.588;13.224;2024-01-07T07:22:03;102001.34;;;0.32;68.19
85066;BME280;75401;52.588;13.224;2024-01-07T07:24:29;102004.00;;;0.31;68.57
85066;BME280;75401;52.588;13.224;2024-01-07T07:26:54;102005.69;;;0.33;67.63
85066;BME280;75401;52.588;13.224;2024-01-07T07:29:19;102012.66;;;0.34;67.22
85066;BME280;75401;52.588;13.224;2024-01-07T07:31:46;102016.09;;;0.36;66.96
85066;BME280;75401;52.588;13.224;2024-01-07T07:34:11;102018.72;;;0.36;67.45
85066;BME280;75401;52.588;13.224;2024-01-07T07:36:37;102016.97;;;0.37;68.50
85066;BME280;75401;52.588;13.224;2024-01-07T07:39:02;102015.22;;;0.36;68.20
85066;BME280;75401;52.588;13.224;2024-01-07T07:41:27;102019.50;;;0.40;68.29
85066;BME280;75401;52.588;13.224;2024-01-07T07:43:52;102021.63;;;0.29;67.13
85066;BME280;75401;52.588;13.224;2024-01-07T07:46:18;102026.78;;;0.32;68.18
85066;BME280;75401;52.588;13.224;2024-01-07T07:48:44;102030.19;;;0.35;67.86
85066;BME280;75401;52.588;13.224;2024-01-07T07:51:10;102033.53;;;0.39;68.23
85066;BME280;75401;52.588;13.224;2024-01-07T07:53:37;102037.13;;;0.38;67.21
85066;BME280;75401;52.588;13.224;2024-01-07T07:56:03;102041.34;;;0.42;68.15
85066;BME280;75401;52.588;13.224;2024-01-07T07:58:29;102038.72;;;0.42;68.26
85066;BME280;75401;52.588;13.224;2024-01-07T08:00:54;102044.91;;;0.41;67.35
85066;BME280;75401;52.588;13.224;2024-01-07T08:03:19;102045.88;;;0.38;66.96
85066;BME280;75401;52.588;13.224;2024-01-07T08:05:46;102060.72;;;0.39;66.35
85066;BME280;75401;52.588;13.224;2024-01-07T08:08:11;102043.38;;;0.34;67.71
85066;BME280;75401;52.588;13.224;2024-01-07T08:10:36;102038.97;;;0.34;68.22
85066;BME280;75401;52.588;13.224;2024-01-07T08:13:02;102055.47;;;0.39;68.11
85066;BME280;75401;52.588;13.224;2024-01-07T08:15:27;102048.53;;;0.37;67.56
85066;BME280;75401;52.588;13.224;2024-01-07T08:17:52;102057.19;;;0.40;67.60
85066;BME280;75401;52.588;13.224;2024-01-07T08:20:18;102056.25;;;0.41;67.58
85066;BME280;75401;52.588;13.224;2024-01-07T08:22:44;102051.13;;;0.38;68.44
85066;BME280;75401;52.588;13.224;2024-01-07T08:25:10;102054.56;;;0.40;68.10
85066;BME280;75401;52.588;13.224;2024-01-07T08:27:35;102067.88;;;0.36;68.18
85066;BME280;75401;52.588;13.224;2024-01-07T08:30:01;102068.69;;;0.38;69.27
85066;BME280;75401;52.588;13.224;2024-01-07T08:32:26;102061.69;;;0.37;69.05
85066;BME280;75401;52.588;13.224;2024-01-07T08:34:51;102045.31;;;0.29;69.04
85066;BME280;75401;52.588;13.224;2024-01-07T08:37:16;102070.34;;;0.40;68.29
85066;BME280;75401;52.588;13.224;2024-01-07T08:39:43;102062.34;;;0.43;69.18
85066;BME280;75401;52.588;13.224;2024-01-07T08:42:08;102053.22;;;0.29;68.80
85066;BME280;75401;52.588;13.224;2024-01-07T08:44:34;102071.25;;;0.39;68.51
85066;BME280;75401;52.588;13.224;2024-01-07T08:46:59;102065.00;;;0.43;69.68
85066;BME280;75401;52.588;13.224;2024-01-07T08:49:25;102068.63;;;0.39;68.60
85066;BME280;75401;52.588;13.224;2024-01-07T08:51:50;102074.53;;;0.46;70.06
85066;BME280;75401;52.588;13.224;2024-01-07T08:54:15;102060.28;;;0.51;69.97
85066;BME280;75401;52.588;13.224;2024-01-07T08:56:42;102055.88;;;0.52;68.56
85066;BME280;75401;52.588;13.224;2024-01-07T08:59:07;102062.19;;;0.48;68.75
85066;BME280;75401;52.588;13.224;2024-01-07T09:01:33;102066.59;;;0.47;69.48
85066;BME280;75401;52.588;13.224;2024-01-07T09:03:58;102078.72;;;0.51;69.94
85066;BME280;75401;52.588;13.224;2024-01-07T09:06:24;102085.81;;;0.49;69.79
85066;BME280;75401;52.588;13.224;2024-01-07T09:08:49;102078.72;;;0.51;69.29
85066;BME280;75401;52.588;13.224;2024-01-07T09:11:14;102084.66;;;0.56;69.48
85066;BME280;75401;52.588;13.224;2024-01-07T09:13:41;102087.38;;;0.55;69.22
85066;BME280;75401;52.588;13.224;2024-01-07T09:16:06;102094.28;;;0.57;69.96
85066;BME280;75401;52.588;13.224;2024-01-07T09:18:32;102092.97;;;0.46;69.03
85066;BME280;75401;52.588;13.224;2024-01-07T09:20:57;102079.41;;;0.56;69.43
85066;BME280;75401;52.588;13.224;2024-01-07T09:23:22;102089.66;;;0.64;70.74
85066;BME280;75401;52.588;13.224;2024-01-07T09:25:48;102085.22;;;0.66;69.12
85066;BME280;75401;52.588;13.224;2024-01-07T09:28:13;102082.63;;;0.64;68.63
85066;BME280;75401;52.588;13.224;2024-01-07T09:30:40;102088.81;;;0.63;67.64
85066;BME280;75401;52.588;13.224;2024-01-07T09:33:05;102086.72;;;0.73;69.21
85066;BME280;75401;52.588;13.224;2024-01-07T09:35:30;102086.63;;;0.75;68.59
85066;BME280;75401;52.588;13.224;2024-01-07T09:37:55;102085.81;;;0.74;68.96
85066;BME280;75401;52.588;13.224;2024-01-07T09:40:21;102089.16;;;0.78;68.48
85066;BME280;75401;52.588;13.224;2024-01-07T09:42:46;102097.84;;;0.80;68.89
85066;BME280;75401;52.588;13.224;2024-01-07T09:45:12;102079.38;;;0.81;69.62
85066;BME280;75401;52.588;13.224;2024-01-07T09:47:40;102082.63;;;0.88;69.66
85066;BME280;75401;52.588;13.224;2024-01-07T09:50:06;102082.63;;;0.88;68.91
85066;BME280;75401;52.588;13.224;2024-01-07T09:52:32;102093.97;;;0.90;69.01
85066;BME280;75401;52.588;13.224;2024-01-07T09:54:59;102099.03;;;0.96;69.96
85066;BME280;75401;52.588;13.224;2024-01-07T09:57:25;102098.91;;;0.99;70.14
85066;BME280;75401;52.588;13.224;2024-01-07T09:59:50;102094.56;;;0.98;69.43
85066;BME280;75401;52.588;13.224;2024-01-07T10:02:16;102089.25;;;0.99;69.26
85066;BME280;75401;52.588;13.224;2024-01-07T10:04:43;102089.25;;;0.99;69.08
85066;BME280;75401;52.588;13.224;2024-01-07T10:07:08;102082.13;;;1.01;69.54
85066;BME280;75401;52.588;13.224;2024-01-07T10:09:34;102087.50;;;0.98;68.80
85066;BME280;75401;52.588;13.224;2024-01-07T10:11:59;102083.84;;;1.02;69.13
85066;BME280;75401;52.588;13.224;2024-01-07T10:14:25;102081.94;;;1.06;70.15
85066;BME280;75401;52.588;13.224;2024-01-07T10:16:50;102076.75;;;1.04;69.46
85066;BME280;75401;52.588;13.224;2024-01-07T10:19:23;102081.66;;;0.90;68.97
85066;BME280;75401;52.588;13.224;2024-01-07T10:22:00;102081.28;;;1.01;68.98
85066;BME280;75401;52.588;13.224;2024-01-07T10:24:25;102084.66;;;1.04;69.45
85066;BME280;75401;52.588;13.224;2024-01-07T10:26:50;102077.47;;;1.08;68.61
85066;BME280;75401;52.588;13.224;2024-01-07T10:29:16;102070.34;;;1.11;69.14
85066;BME280;75401;52.588;13.224;2024-01-07T10:31:41;102077.38;;;1.11;68.96
85066;BME280;75401;52.588;13.224;2024-01-07T10:34:07;102070.22;;;1.14;68.50
85066;BME280;75401;52.588;13.224;2024-01-07T10:36:32;102071.88;;;1.17;68.70
85066;BME280;75401;52.588;13.224;2024-01-07T10:38:59;102069.16;;;1.18;69.23
85066;BME280;75401;52.588;13.224;2024-01-07T10:41:25;102067.31;;;1.20;68.74
85066;BME280;75401;52.588;13.224;2024-01-07T10:43:50;102068.44;;;1.15;69.39
85066;BME280;75401;52.588;13.224;2024-01-07T10:46:16;102070.72;;;1.24;69.67
85066;BME280;75401;52.588;13.224;2024-01-07T10:48:50;102064.47;;;1.26;69.79
85066;BME280;75401;52.588;13.224;2024-01-07T10:51:16;102060.25;;;1.22;70.19
85066;BME280;75401;52.588;13.224;2024-01-07T10:53:43;102052.88;;;1.31;70.16
85066;BME280;75401;52.588;13.224;2024-01-07T10:56:11;102039.38;;;1.16;70.03
85066;BME280;75401;52.588;13.224;2024-01-07T10:58:39;102049.25;;;1.33;70.68
85066;BME280;75401;52.588;13.224;2024-01-07T11:01:06;102047.25;;;1.40;70.84
85066;BME280;75401;52.588;13.224;2024-01-07T11:03:36;102042.69;;;1.43;70.39
85066;BME280;75401;52.588;13.224;2024-01-07T11:06:09;102042.34;;;1.52;70.91
85066;BME280;75401;52.588;13.224;2024-01-07T11:08:41;102053.56;;;1.57;70.95
85066;BME280;75401;52.588;13.224;2024-01-07T11:11:15;102054.75;;;1.50;71.95
85066;BME280;75401;52.588;13.224;2024-01-07T11:13:41;101997.41;;;1.12;70.53
85066;BME280;75401;52.588;13.224;2024-01-07T11:16:06;102041.34;;;1.33;71.07
85066;BME280;75401;52.588;13.224;2024-01-07T11:18:32;102059.16;;;1.50;71.43
85066;BME280;75401;52.588;13.224;2024-01-07T11:20:58;102058.94;;;1.54;71.33
85066;BME280;75401;52.588;13.224;2024-01-07T11:23:28;102060.53;;;1.37;71.49
85066;BME280;75401;52.588;13.224;2024-01-07T11:25:53;102055.66;;;1.27;72.36
85066;BME280;75401;52.588;13.224;2024-01-07T11:28:43;102058.41;;;1.24;72.09
85066;BME280;75401;52.588;13.224;2024-01-07T11:31:10;102061.81;;;1.26;72.77
85066;BME280;75401;52.588;13.224;2024-01-07T11:33:36;102059.19;;;1.26;72.85
85066;BME280;75401;52.588;13.224;2024-01-07T11:36:02;102061.81;;;1.26;73.32
85066;BME280;75401;52.588;13.224;2024-01-07T11:38:29;102059.88;;;1.32;72.92
85066;BME280;75401;52.588;13.224;2024-01-07T11:40:56;102055.38;;;1.34;73.00
85066;BME280;75401;52.588;13.224;2024-01-07T11:43:22;102044.28;;;1.25;72.75
85066;BME280;75401;52.588;13.224;2024-01-07T11:45:49;102054.41;;;1.36;73.03
85066;BME280;75401;52.588;13.224;2024-01-07T11:48:14;102046.50;;;1.36;73.09
85066;BME280;75401;52.588;13.224;2024-01-07T11:50:40;102042.16;;;1.35;72.92
85066;BME280;75401;52.588;13.224;2024-01-07T11:53:05;102039.38;;;1.38;73.28
85066;BME280;75401;52.588;13.224;2024-01-07T11:55:31;102036.03;;;1.35;73.79
85066;BME280;75401;52.588;13.224;2024-01-07T11:57:57;102038.38;;;1.42;73.60
85066;BME280;75401;52.588;13.224;2024-01-07T12:00:25;102034.00;;;1.41;73.88
85066;BME280;75401;52.588;13.224;2024-01-07T12:02:50;101987.19;;;1.26;73.76
85066;BME280;75401;52.588;13.224;2024-01-07T12:05:15;102032.66;;;1.53;73.25
85066;BME280;75401;52.588;13.224;2024-01-07T12:07:41;102023.69;;;1.57;73.68
85066;BME280;75401;52.588;13.224;2024-01-07T12:10:07;102024.44;;;1.60;73.98
85066;BME280;75401;52.588;13.224;2024-01-07T12:12:33;102021.00;;;1.58;73.13
85066;BME280;75401;52.588;13.224;2024-01-07T12:14:58;102015.53;;;1.63;73.25
85066;BME280;75401;52.588;13.224;2024-01-07T12:17:26;102019.56;;;1.71;73.45
85066;BME280;75401;52.588;13.224;2024-01-07T12:19:51;102021.22;;;1.74;73.80
85066;BME280;75401;52.588;13.224;2024-01-07T12:22:17;102025.66;;;1.73;73.36
85066;BME280;75401;52.588;13.224;2024-01-07T12:24:42;102026.81;;;1.66;73.49
85066;BME280;75401;52.588;13.224;2024-01-07T12:27:08;102026.69;;;1.69;73.06
85066;BME280;75401;52.588;13.224;2024-01-07T12:29:33;102017.41;;;1.61;73.07
85066;BME280;75401;52.588;13.224;2024-01-07T12:31:59;102021.72;;;1.62;72.58
85066;BME280;75401;52.588;13.224;2024-01-07T12:34:25;102022.34;;;1.68;73.53
85066;BME280;75401;52.588;13.224;2024-01-07T12:36:51;102030.25;;;1.68;73.33
85066;BME280;75401;52.588;13.224;2024-01-07T12:39:16;102034.47;;;1.72;73.89